sensor_id;sensor_type;location;lat;lon;timestamp;P1;durP1;ratioP1;P2;durP2;ratioP2
10045;SDS011;5063;50.878;4.742;2022-10-31T00:01:12;16.13;;;10.90;;
10045;SDS011;5063;50.878;4.742;2022-10-31T00:03:41;19.13;;;10.83;;
10045;SDS011;5063;50.878;4.742;2022-10-31T00:06:07;16.17;;;11.03;;
10045;SDS011;5063;50.878;4.742;2022-10-31T00:08:33;16.60;;;9.80;;
10045;SDS011;5063;50.878;4.742;2022-10-31T00:10:59;18.67;;;11.20;;
10045;SDS011;5063;50.878;4.742;2022-10-31T00:13:25;13.30;;;10.20;;
10045;SDS011;5063;50.878;4.742;2022-10-31T00:15:51;14.93;;;10.83;;
10045;SDS011;5063;50.878;4.742;2022-10-31T00:18:17;20.50;;;10.90;;
10045;SDS011;5063;50.878;4.742;2022-10-31T00:20:42;13.03;;;9.80;;
10045;SDS011;5063;50.878;4.742;2022-10-31T00:23:08;15.93;;;10.90;;
10045;SDS011;5063;50.878;4.742;2022-10-31T00:25:36;14.80;;;10.47;;
10045;SDS011;5063;50.878;4.742;2022-10-31T00:28:04;16.90;;;10.27;;
10045;SDS011;5063;50.878;4.742;2022-10-31T00:30:31;13.93;;;9.60;;
10045;SDS011;5063;50.878;4.742;2022-10-31T00:32:58;19.30;;;11.43;;
10045;SDS011;5063;50.878;4.742;2022-10-31T00:35:23;13.13;;;9.70;;
10045;SDS011;5063;50.878;4.742;2022-10-31T00:37:49;13.57;;;10.67;;
10045;SDS011;5063;50.878;4.742;2022-10-31T00:40:15;19.77;;;9.93;;
10045;SDS011;5063;50.878;4.742;2022-10-31T00:42:41;16.10;;;10.67;;
10045;SDS011;5063;50.878;4.742;2022-10-31T00:45:10;13.43;;;8.80;;
10045;SDS011;5063;50.878;4.742;2022-10-31T00:47:36;14.40;;;9.97;;
10045;SDS011;5063;50.878;4.742;2022-10-31T00:50:03;16.23;;;9.67;;
10045;SDS011;5063;50.878;4.742;2022-10-31T00:52:30;15.63;;;9.93;;
10045;SDS011;5063;50.878;4.742;2022-10-31T00:54:55;17.53;;;9.93;;
10045;SDS011;5063;50.878;4.742;2022-10-31T00:57:21;15.90;;;10.20;;
10045;SDS011;5063;50.878;4.742;2022-10-31T00:59:47;15.60;;;10.23;;
10045;SDS011;5063;50.878;4.742;2022-10-31T01:02:12;18.90;;;10.40;;
10045;SDS011;5063;50.878;4.742;2022-10-31T01:04:38;14.23;;;10.20;;
10045;SDS011;5063;50.878;4.742;2022-10-31T01:07:04;15.90;;;10.00;;
10045;SDS011;5063;50.878;4.742;2022-10-31T01:09:29;16.30;;;10.10;;
10045;SDS011;5063;50.878;4.742;2022-10-31T01:11:55;14.13;;;9.90;;
10045;SDS011;5063;50.878;4.742;2022-10-31T01:14:21;18.27;;;10.57;;
10045;SDS011;5063;50.878;4.742;2022-10-31T01:16:46;15.20;;;9.60;;
10045;SDS011;5063;50.878;4.742;2022-10-31T01:19:12;16.20;;;9.83;;
10045;SDS011;5063;50.878;4.742;2022-10-31T01:21:38;18.90;;;9.83;;
10045;SDS011;5063;50.878;4.742;2022-10-31T01:24:04;21.10;;;10.60;;
10045;SDS011;5063;50.878;4.742;2022-10-31T01:26:30;17.83;;;10.40;;
10045;SDS011;5063;50.878;4.742;2022-10-31T01:28:58;15.63;;;10.47;;
10045;SDS011;5063;50.878;4.742;2022-10-31T01:31:26;13.40;;;9.57;;
10045;SDS011;5063;50.878;4.742;2022-10-31T01:33:54;14.63;;;10.27;;
10045;SDS011;5063;50.878;4.742;2022-10-31T01:36:28;17.67;;;11.20;;
10045;SDS011;5063;50.878;4.742;2022-10-31T01:38:55;12.53;;;9.53;;
10045;SDS011;5063;50.878;4.742;2022-10-31T01:41:25;15.47;;;9.77;;
10045;SDS011;5063;50.878;4.742;2022-10-31T01:43:54;12.23;;;9.57;;
10045;SDS011;5063;50.878;4.742;2022-10-31T01:46:39;14.90;;;10.13;;
10045;SDS011;5063;50.878;4.742;2022-10-31T01:49:13;12.70;;;10.13;;
10045;SDS011;5063;50.878;4.742;2022-10-31T01:51:47;21.77;;;10.60;;
10045;SDS011;5063;50.878;4.742;2022-10-31T01:54:17;21.40;;;11.47;;
10045;SDS011;5063;50.878;4.742;2022-10-31T01:56:46;18.80;;;10.67;;
10045;SDS011;5063;50.878;4.742;2022-10-31T01:59:15;11.03;;;9.83;;
10045;SDS011;5063;50.878;4.742;2022-10-31T02:01:44;12.33;;;10.00;;
10045;SDS011;5063;50.878;4.742;2022-10-31T02:04:11;13.10;;;10.17;;
10045;SDS011;5063;50.878;4.742;2022-10-31T02:06:47;13.93;;;9.93;;
10045;SDS011;5063;50.878;4.742;2022-10-31T02:09:23;12.27;;;8.83;;
10045;SDS011;5063;50.878;4.742;2022-10-31T02:11:51;14.37;;;9.53;;
10045;SDS011;5063;50.878;4.742;2022-10-31T02:14:18;17.90;;;10.10;;
10045;SDS011;5063;50.878;4.742;2022-10-31T02:16:46;17.53;;;10.27;;
10045;SDS011;5063;50.878;4.742;2022-10-31T02:19:12;15.90;;;9.93;;
10045;SDS011;5063;50.878;4.742;2022-10-31T02:22:18;12.33;;;9.87;;
10045;SDS011;5063;50.878;4.742;2022-10-31T02:30:18;13.57;;;9.20;;
10045;SDS011;5063;50.878;4.742;2022-10-31T02:38:21;15.10;;;10.50;;
10045;SDS011;5063;50.878;4.742;2022-10-31T02:41:04;13.80;;;8.73;;
10045;SDS011;5063;50.878;4.742;2022-10-31T02:43:36;14.00;;;9.50;;
10045;SDS011;5063;50.878;4.742;2022-10-31T02:46:14;18.33;;;10.07;;
10045;SDS011;5063;50.878;4.742;2022-10-31T02:48:54;11.97;;;9.63;;
10045;SDS011;5063;50.878;4.742;2022-10-31T02:51:25;13.17;;;9.40;;
10045;SDS011;5063;50.878;4.742;2022-10-31T02:53:51;17.17;;;10.60;;
10045;SDS011;5063;50.878;4.742;2022-10-31T02:56:18;16.03;;;9.77;;
10045;SDS011;5063;50.878;4.742;2022-10-31T02:59:02;14.43;;;8.67;;
10045;SDS011;5063;50.878;4.742;2022-10-31T03:04:02;16.20;;;9.53;;
10045;SDS011;5063;50.878;4.742;2022-10-31T03:09:27;13.23;;;9.50;;
10045;SDS011;5063;50.878;4.742;2022-10-31T03:14:47;14.13;;;8.97;;
10045;SDS011;5063;50.878;4.742;2022-10-31T03:17:25;14.23;;;8.73;;
10045;SDS011;5063;50.878;4.742;2022-10-31T03:19:59;13.47;;;9.10;;
10045;SDS011;5063;50.878;4.742;2022-10-31T03:22:28;14.33;;;9.47;;
10045;SDS011;5063;50.878;4.742;2022-10-31T03:24:56;12.53;;;9.17;;
10045;SDS011;5063;50.878;4.742;2022-10-31T03:27:25;10.77;;;8.70;;
10045;SDS011;5063;50.878;4.742;2022-10-31T03:29:54;9.90;;;8.63;;
10045;SDS011;5063;50.878;4.742;2022-10-31T03:32:27;11.60;;;9.60;;
10045;SDS011;5063;50.878;4.742;2022-10-31T03:34:59;12.87;;;9.33;;
10045;SDS011;5063;50.878;4.742;2022-10-31T03:37:28;11.10;;;8.47;;
10045;SDS011;5063;50.878;4.742;2022-10-31T03:39:58;17.73;;;9.10;;
10045;SDS011;5063;50.878;4.742;2022-10-31T03:42:25;13.90;;;9.77;;
10045;SDS011;5063;50.878;4.742;2022-10-31T03:45:02;16.50;;;10.23;;
10045;SDS011;5063;50.878;4.742;2022-10-31T03:47:37;14.90;;;9.07;;
10045;SDS011;5063;50.878;4.742;2022-10-31T03:50:07;14.67;;;10.60;;
10045;SDS011;5063;50.878;4.742;2022-10-31T03:52:41;17.27;;;11.77;;
10045;SDS011;5063;50.878;4.742;2022-10-31T03:55:26;19.73;;;11.63;;
10045;SDS011;5063;50.878;4.742;2022-10-31T04:00:41;21.17;;;12.77;;
10045;SDS011;5063;50.878;4.742;2022-10-31T04:03:14;16.47;;;10.63;;
10045;SDS011;5063;50.878;4.742;2022-10-31T04:05:45;19.37;;;11.00;;
10045;SDS011;5063;50.878;4.742;2022-10-31T04:08:13;18.20;;;12.27;;
10045;SDS011;5063;50.878;4.742;2022-10-31T04:10:42;20.57;;;12.47;;
10045;SDS011;5063;50.878;4.742;2022-10-31T04:13:14;16.10;;;12.63;;
10045;SDS011;5063;50.878;4.742;2022-10-31T04:15:44;18.90;;;12.37;;
10045;SDS011;5063;50.878;4.742;2022-10-31T04:18:10;19.57;;;12.23;;
10045;SDS011;5063;50.878;4.742;2022-10-31T04:20:37;20.73;;;12.03;;
10045;SDS011;5063;50.878;4.742;2022-10-31T04:23:08;17.67;;;11.50;;
10045;SDS011;5063;50.878;4.742;2022-10-31T04:25:43;23.17;;;12.20;;
10045;SDS011;5063;50.878;4.742;2022-10-31T04:28:09;17.97;;;11.83;;
10045;SDS011;5063;50.878;4.742;2022-10-31T04:30:34;22.40;;;12.20;;
10045;SDS011;5063;50.878;4.742;2022-10-31T04:33:00;15.20;;;11.53;;
10045;SDS011;5063;50.878;4.742;2022-10-31T04:35:26;18.13;;;12.00;;
10045;SDS011;5063;50.878;4.742;2022-10-31T04:37:51;19.53;;;12.00;;
10045;SDS011;5063;50.878;4.742;2022-10-31T04:40:17;19.40;;;12.00;;
10045;SDS011;5063;50.878;4.742;2022-10-31T04:42:43;22.97;;;11.73;;
10045;SDS011;5063;50.878;4.742;2022-10-31T04:45:09;15.50;;;10.50;;
10045;SDS011;5063;50.878;4.742;2022-10-31T04:47:35;17.10;;;11.40;;
10045;SDS011;5063;50.878;4.742;2022-10-31T04:50:01;19.07;;;12.23;;
10045;SDS011;5063;50.878;4.742;2022-10-31T04:52:27;20.37;;;12.70;;
10045;SDS011;5063;50.878;4.742;2022-10-31T04:54:53;23.90;;;13.10;;
10045;SDS011;5063;50.878;4.742;2022-10-31T04:57:19;19.00;;;13.37;;
10045;SDS011;5063;50.878;4.742;2022-10-31T04:59:44;22.50;;;12.90;;
10045;SDS011;5063;50.878;4.742;2022-10-31T05:02:10;25.90;;;13.10;;
10045;SDS011;5063;50.878;4.742;2022-10-31T05:04:36;20.47;;;13.80;;
10045;SDS011;5063;50.878;4.742;2022-10-31T05:07:01;21.23;;;13.57;;
10045;SDS011;5063;50.878;4.742;2022-10-31T05:09:27;21.07;;;13.27;;
10045;SDS011;5063;50.878;4.742;2022-10-31T05:11:53;19.67;;;12.87;;
10045;SDS011;5063;50.878;4.742;2022-10-31T05:14:18;20.43;;;13.80;;
10045;SDS011;5063;50.878;4.742;2022-10-31T05:16:44;20.37;;;13.73;;
10045;SDS011;5063;50.878;4.742;2022-10-31T05:19:10;19.70;;;12.47;;
10045;SDS011;5063;50.878;4.742;2022-10-31T05:21:35;17.30;;;11.47;;
10045;SDS011;5063;50.878;4.742;2022-10-31T05:24:01;19.00;;;12.97;;
10045;SDS011;5063;50.878;4.742;2022-10-31T05:26:27;14.27;;;11.83;;
10045;SDS011;5063;50.878;4.742;2022-10-31T05:28:53;18.13;;;12.40;;
10045;SDS011;5063;50.878;4.742;2022-10-31T05:31:18;15.83;;;12.13;;
10045;SDS011;5063;50.878;4.742;2022-10-31T05:33:44;18.73;;;12.23;;
10045;SDS011;5063;50.878;4.742;2022-10-31T05:36:10;18.57;;;12.50;;
10045;SDS011;5063;50.878;4.742;2022-10-31T05:38:36;18.63;;;13.43;;
10045;SDS011;5063;50.878;4.742;2022-10-31T05:41:01;16.23;;;12.20;;
10045;SDS011;5063;50.878;4.742;2022-10-31T05:43:27;18.50;;;13.27;;
10045;SDS011;5063;50.878;4.742;2022-10-31T05:45:56;17.60;;;11.67;;
10045;SDS011;5063;50.878;4.742;2022-10-31T05:48:22;19.10;;;12.13;;
10045;SDS011;5063;50.878;4.742;2022-10-31T05:50:48;15.17;;;12.00;;
10045;SDS011;5063;50.878;4.742;2022-10-31T05:53:14;19.03;;;13.33;;
10045;SDS011;5063;50.878;4.742;2022-10-31T05:55:41;17.60;;;11.77;;
10045;SDS011;5063;50.878;4.742;2022-10-31T05:58:08;16.40;;;11.57;;
10045;SDS011;5063;50.878;4.742;2022-10-31T06:00:34;17.67;;;12.43;;
10045;SDS011;5063;50.878;4.742;2022-10-31T06:03:01;19.17;;;12.07;;
10045;SDS011;5063;50.878;4.742;2022-10-31T06:05:29;18.07;;;12.67;;
10045;SDS011;5063;50.878;4.742;2022-10-31T06:07:55;18.90;;;13.40;;
10045;SDS011;5063;50.878;4.742;2022-10-31T06:10:21;19.57;;;13.33;;
10045;SDS011;5063;50.878;4.742;2022-10-31T06:12:48;16.57;;;12.90;;
10045;SDS011;5063;50.878;4.742;2022-10-31T06:15:14;20.97;;;13.80;;
10045;SDS011;5063;50.878;4.742;2022-10-31T06:17:40;23.47;;;13.53;;
10045;SDS011;5063;50.878;4.742;2022-10-31T06:20:06;20.13;;;13.23;;
10045;SDS011;5063;50.878;4.742;2022-10-31T06:22:33;20.07;;;13.07;;
10045;SDS011;5063;50.878;4.742;2022-10-31T06:24:58;16.07;;;12.77;;
10045;SDS011;5063;50.878;4.742;2022-10-31T06:27:24;20.07;;;13.70;;
10045;SDS011;5063;50.878;4.742;2022-10-31T06:29:50;18.87;;;13.70;;
10045;SDS011;5063;50.878;4.742;2022-10-31T06:32:16;19.93;;;13.07;;
10045;SDS011;5063;50.878;4.742;2022-10-31T06:34:42;20.67;;;13.67;;
10045;SDS011;5063;50.878;4.742;2022-10-31T06:37:09;19.63;;;14.20;;
10045;SDS011;5063;50.878;4.742;2022-10-31T06:39:36;19.20;;;14.27;;
10045;SDS011;5063;50.878;4.742;2022-10-31T06:42:02;23.40;;;16.07;;
10045;SDS011;5063;50.878;4.742;2022-10-31T06:44:29;23.03;;;15.63;;
10045;SDS011;5063;50.878;4.742;2022-10-31T06:46:55;21.97;;;14.70;;
10045;SDS011;5063;50.878;4.742;2022-10-31T06:49:21;24.27;;;15.83;;
10045;SDS011;5063;50.878;4.742;2022-10-31T06:51:47;21.47;;;15.27;;
10045;SDS011;5063;50.878;4.742;2022-10-31T06:54:13;21.33;;;13.43;;
10045;SDS011;5063;50.878;4.742;2022-10-31T06:56:39;18.60;;;13.63;;
10045;SDS011;5063;50.878;4.742;2022-10-31T06:59:05;22.10;;;13.57;;
10045;SDS011;5063;50.878;4.742;2022-10-31T07:01:31;22.03;;;13.20;;
10045;SDS011;5063;50.878;4.742;2022-10-31T07:03:57;23.80;;;14.30;;
10045;SDS011;5063;50.878;4.742;2022-10-31T07:06:22;15.20;;;11.43;;
10045;SDS011;5063;50.878;4.742;2022-10-31T07:08:48;14.17;;;11.83;;
10045;SDS011;5063;50.878;4.742;2022-10-31T07:11:14;17.83;;;12.70;;
10045;SDS011;5063;50.878;4.742;2022-10-31T07:13:40;17.07;;;12.53;;
10045;SDS011;5063;50.878;4.742;2022-10-31T07:16:06;15.57;;;13.03;;
10045;SDS011;5063;50.878;4.742;2022-10-31T07:18:32;21.47;;;14.53;;
10045;SDS011;5063;50.878;4.742;2022-10-31T07:20:59;20.60;;;13.10;;
10045;SDS011;5063;50.878;4.742;2022-10-31T07:23:24;20.97;;;13.43;;
10045;SDS011;5063;50.878;4.742;2022-10-31T07:25:57;21.37;;;12.60;;
10045;SDS011;5063;50.878;4.742;2022-10-31T07:28:23;19.03;;;12.77;;
10045;SDS011;5063;50.878;4.742;2022-10-31T07:30:51;20.50;;;13.03;;
10045;SDS011;5063;50.878;4.742;2022-10-31T07:33:17;17.77;;;12.53;;
10045;SDS011;5063;50.878;4.742;2022-10-31T07:35:43;20.60;;;14.90;;
10045;SDS011;5063;50.878;4.742;2022-10-31T07:38:09;20.80;;;13.50;;
10045;SDS011;5063;50.878;4.742;2022-10-31T07:40:36;17.13;;;12.03;;
10045;SDS011;5063;50.878;4.742;2022-10-31T07:43:02;19.90;;;12.50;;
10045;SDS011;5063;50.878;4.742;2022-10-31T07:45:28;17.10;;;12.27;;
10045;SDS011;5063;50.878;4.742;2022-10-31T07:47:54;18.77;;;12.43;;
10045;SDS011;5063;50.878;4.742;2022-10-31T07:50:24;14.97;;;12.50;;
10045;SDS011;5063;50.878;4.742;2022-10-31T07:53:05;19.87;;;11.97;;
10045;SDS011;5063;50.878;4.742;2022-10-31T07:55:33;19.03;;;11.80;;
10045;SDS011;5063;50.878;4.742;2022-10-31T07:58:00;14.70;;;11.93;;
10045;SDS011;5063;50.878;4.742;2022-10-31T08:00:31;14.47;;;11.37;;
10045;SDS011;5063;50.878;4.742;2022-10-31T08:03:05;17.53;;;11.23;;
10045;SDS011;5063;50.878;4.742;2022-10-31T08:05:33;14.10;;;10.73;;
10045;SDS011;5063;50.878;4.742;2022-10-31T08:07:59;17.13;;;11.37;;
10045;SDS011;5063;50.878;4.742;2022-10-31T08:10:26;19.83;;;12.47;;
10045;SDS011;5063;50.878;4.742;2022-10-31T08:13:05;16.40;;;11.27;;
10045;SDS011;5063;50.878;4.742;2022-10-31T08:15:33;14.17;;;12.13;;
10045;SDS011;5063;50.878;4.742;2022-10-31T08:18:02;15.73;;;11.37;;
10045;SDS011;5063;50.878;4.742;2022-10-31T08:20:28;18.73;;;11.33;;
10045;SDS011;5063;50.878;4.742;2022-10-31T08:22:55;12.97;;;11.10;;
10045;SDS011;5063;50.878;4.742;2022-10-31T08:25:22;14.20;;;10.83;;
10045;SDS011;5063;50.878;4.742;2022-10-31T08:27:48;14.80;;;10.53;;
10045;SDS011;5063;50.878;4.742;2022-10-31T08:30:15;13.67;;;10.27;;
10045;SDS011;5063;50.878;4.742;2022-10-31T08:32:56;16.27;;;11.77;;
10045;SDS011;5063;50.878;4.742;2022-10-31T08:35:26;18.77;;;12.50;;
10045;SDS011;5063;50.878;4.742;2022-10-31T08:37:53;17.13;;;11.23;;
10045;SDS011;5063;50.878;4.742;2022-10-31T08:40:19;17.83;;;11.60;;
10045;SDS011;5063;50.878;4.742;2022-10-31T08:42:45;17.77;;;11.30;;
10045;SDS011;5063;50.878;4.742;2022-10-31T08:45:11;19.73;;;12.00;;
10045;SDS011;5063;50.878;4.742;2022-10-31T08:47:37;17.60;;;11.07;;
10045;SDS011;5063;50.878;4.742;2022-10-31T08:50:03;13.93;;;10.60;;
10045;SDS011;5063;50.878;4.742;2022-10-31T08:52:29;23.07;;;12.20;;
10045;SDS011;5063;50.878;4.742;2022-10-31T08:54:54;13.87;;;10.37;;
10045;SDS011;5063;50.878;4.742;2022-10-31T08:57:20;14.27;;;11.20;;
10045;SDS011;5063;50.878;4.742;2022-10-31T08:59:46;19.23;;;11.90;;
10045;SDS011;5063;50.878;4.742;2022-10-31T09:02:12;19.63;;;12.40;;
10045;SDS011;5063;50.878;4.742;2022-10-31T09:04:37;21.37;;;12.73;;
10045;SDS011;5063;50.878;4.742;2022-10-31T09:07:03;19.47;;;12.67;;
10045;SDS011;5063;50.878;4.742;2022-10-31T09:09:29;15.57;;;10.60;;
10045;SDS011;5063;50.878;4.742;2022-10-31T09:11:54;18.70;;;10.37;;
10045;SDS011;5063;50.878;4.742;2022-10-31T09:14:20;21.00;;;11.30;;
10045;SDS011;5063;50.878;4.742;2022-10-31T09:16:46;16.43;;;11.20;;
10045;SDS011;5063;50.878;4.742;2022-10-31T09:19:11;17.50;;;10.23;;
10045;SDS011;5063;50.878;4.742;2022-10-31T09:21:37;20.43;;;11.50;;
10045;SDS011;5063;50.878;4.742;2022-10-31T09:24:03;19.80;;;12.13;;
10045;SDS011;5063;50.878;4.742;2022-10-31T09:26:29;16.10;;;11.67;;
10045;SDS011;5063;50.878;4.742;2022-10-31T09:28:55;15.03;;;11.57;;
10045;SDS011;5063;50.878;4.742;2022-10-31T09:31:22;14.23;;;11.20;;
10045;SDS011;5063;50.878;4.742;2022-10-31T09:33:48;18.80;;;12.60;;
10045;SDS011;5063;50.878;4.742;2022-10-31T09:36:14;15.50;;;11.77;;
10045;SDS011;5063;50.878;4.742;2022-10-31T09:38:39;20.83;;;11.70;;
10045;SDS011;5063;50.878;4.742;2022-10-31T09:49:48;15.07;;;10.87;;
10045;SDS011;5063;50.878;4.742;2022-10-31T09:52:36;18.30;;;11.47;;
10045;SDS011;5063;50.878;4.742;2022-10-31T09:55:09;17.53;;;11.27;;
10045;SDS011;5063;50.878;4.742;2022-10-31T09:57:41;16.73;;;12.20;;
10045;SDS011;5063;50.878;4.742;2022-10-31T10:00:19;15.67;;;12.97;;
10045;SDS011;5063;50.878;4.742;2022-10-31T10:08:22;15.87;;;12.47;;
10045;SDS011;5063;50.878;4.742;2022-10-31T10:22:15;19.20;;;12.07;;
10045;SDS011;5063;50.878;4.742;2022-10-31T10:33:05;12.47;;;11.17;;
10045;SDS011;5063;50.878;4.742;2022-10-31T10:35:44;17.43;;;11.40;;
10045;SDS011;5063;50.878;4.742;2022-10-31T10:40:52;17.70;;;12.10;;
10045;SDS011;5063;50.878;4.742;2022-10-31T10:51:40;15.80;;;9.90;;
10045;SDS011;5063;50.878;4.742;2022-10-31T11:00:41;14.47;;;9.77;;
10045;SDS011;5063;50.878;4.742;2022-10-31T11:03:11;15.03;;;8.80;;
10045;SDS011;5063;50.878;4.742;2022-10-31T11:05:57;12.97;;;9.50;;
10045;SDS011;5063;50.878;4.742;2022-10-31T11:08:30;13.07;;;9.20;;
10045;SDS011;5063;50.878;4.742;2022-10-31T11:13:48;14.87;;;8.23;;
10045;SDS011;5063;50.878;4.742;2022-10-31T11:18:51;13.97;;;7.93;;
10045;SDS011;5063;50.878;4.742;2022-10-31T11:21:28;14.10;;;7.47;;
10045;SDS011;5063;50.878;4.742;2022-10-31T11:26:39;12.33;;;7.30;;
10045;SDS011;5063;50.878;4.742;2022-10-31T11:29:14;12.50;;;7.90;;
10045;SDS011;5063;50.878;4.742;2022-10-31T11:31:48;16.70;;;7.40;;
10045;SDS011;5063;50.878;4.742;2022-10-31T11:34:20;12.77;;;7.47;;
10045;SDS011;5063;50.878;4.742;2022-10-31T11:37:03;13.80;;;7.50;;
10045;SDS011;5063;50.878;4.742;2022-10-31T11:39:40;13.93;;;8.23;;
10045;SDS011;5063;50.878;4.742;2022-10-31T11:42:08;15.23;;;9.13;;
10045;SDS011;5063;50.878;4.742;2022-10-31T11:44:34;15.07;;;7.87;;
10045;SDS011;5063;50.878;4.742;2022-10-31T11:47:00;12.50;;;8.77;;
10045;SDS011;5063;50.878;4.742;2022-10-31T11:49:38;14.83;;;8.67;;
10045;SDS011;5063;50.878;4.742;2022-10-31T11:52:08;13.50;;;6.67;;
10045;SDS011;5063;50.878;4.742;2022-10-31T11:54:49;14.03;;;8.77;;
10045;SDS011;5063;50.878;4.742;2022-10-31T11:57:27;12.80;;;8.87;;
10045;SDS011;5063;50.878;4.742;2022-10-31T12:00:02;10.43;;;8.03;;
10045;SDS011;5063;50.878;4.742;2022-10-31T12:02:41;15.47;;;8.80;;
10045;SDS011;5063;50.878;4.742;2022-10-31T12:07:32;12.43;;;7.33;;
10045;SDS011;5063;50.878;4.742;2022-10-31T12:09:58;9.77;;;7.30;;
10045;SDS011;5063;50.878;4.742;2022-10-31T12:48:04;15.80;;;7.43;;
10045;SDS011;5063;50.878;4.742;2022-10-31T12:51:01;14.03;;;7.53;;
10045;SDS011;5063;50.878;4.742;2022-10-31T12:53:51;11.43;;;6.43;;
10045;SDS011;5063;50.878;4.742;2022-10-31T12:59:20;9.17;;;6.43;;
10045;SDS011;5063;50.878;4.742;2022-10-31T13:04:49;14.57;;;5.83;;
10045;SDS011;5063;50.878;4.742;2022-10-31T13:07:45;14.13;;;6.27;;
10045;SDS011;5063;50.878;4.742;2022-10-31T13:12:37;10.87;;;6.43;;
10045;SDS011;5063;50.878;4.742;2022-10-31T13:15:12;12.50;;;5.87;;
10045;SDS011;5063;50.878;4.742;2022-10-31T13:17:44;14.93;;;5.97;;
10045;SDS011;5063;50.878;4.742;2022-10-31T13:22:53;8.87;;;6.10;;
10045;SDS011;5063;50.878;4.742;2022-10-31T13:25:28;11.10;;;6.30;;
10045;SDS011;5063;50.878;4.742;2022-10-31T13:30:51;14.17;;;7.00;;
10045;SDS011;5063;50.878;4.742;2022-10-31T13:46:50;11.07;;;6.97;;
10045;SDS011;5063;50.878;4.742;2022-10-31T13:49:36;14.23;;;7.17;;
10045;SDS011;5063;50.878;4.742;2022-10-31T13:54:39;16.73;;;8.43;;
10045;SDS011;5063;50.878;4.742;2022-10-31T13:57:19;15.33;;;8.03;;
10045;SDS011;5063;50.878;4.742;2022-10-31T13:59:52;14.13;;;8.67;;
10045;SDS011;5063;50.878;4.742;2022-10-31T14:02:43;12.70;;;7.83;;
10045;SDS011;5063;50.878;4.742;2022-10-31T14:05:33;14.80;;;8.20;;
10045;SDS011;5063;50.878;4.742;2022-10-31T14:08:01;15.23;;;8.13;;
10045;SDS011;5063;50.878;4.742;2022-10-31T14:10:38;13.27;;;8.57;;
10045;SDS011;5063;50.878;4.742;2022-10-31T14:13:23;10.53;;;7.90;;
10045;SDS011;5063;50.878;4.742;2022-10-31T14:19:02;13.63;;;8.30;;
10045;SDS011;5063;50.878;4.742;2022-10-31T14:21:36;10.27;;;8.67;;
10045;SDS011;5063;50.878;4.742;2022-10-31T14:29:23;16.17;;;9.00;;
10045;SDS011;5063;50.878;4.742;2022-10-31T14:31:52;13.93;;;8.60;;
10045;SDS011;5063;50.878;4.742;2022-10-31T14:34:37;16.40;;;9.17;;
10045;SDS011;5063;50.878;4.742;2022-10-31T14:37:22;20.20;;;9.57;;
10045;SDS011;5063;50.878;4.742;2022-10-31T14:49:11;13.13;;;8.87;;
10045;SDS011;5063;50.878;4.742;2022-10-31T14:51:51;13.60;;;9.23;;
10045;SDS011;5063;50.878;4.742;2022-10-31T14:54:51;14.97;;;8.67;;
10045;SDS011;5063;50.878;4.742;2022-10-31T14:57:23;16.37;;;10.03;;
10045;SDS011;5063;50.878;4.742;2022-10-31T14:59:58;13.37;;;8.93;;
10045;SDS011;5063;50.878;4.742;2022-10-31T15:05:05;14.00;;;8.90;;
10045;SDS011;5063;50.878;4.742;2022-10-31T15:07:33;16.93;;;9.60;;
10045;SDS011;5063;50.878;4.742;2022-10-31T15:10:00;20.17;;;9.13;;
10045;SDS011;5063;50.878;4.742;2022-10-31T15:12:30;17.27;;;9.57;;
10045;SDS011;5063;50.878;4.742;2022-10-31T15:14:57;18.50;;;9.47;;
10045;SDS011;5063;50.878;4.742;2022-10-31T15:17:24;12.93;;;9.03;;
10045;SDS011;5063;50.878;4.742;2022-10-31T15:19:51;17.40;;;9.97;;
10045;SDS011;5063;50.878;4.742;2022-10-31T15:22:19;17.03;;;9.33;;
10045;SDS011;5063;50.878;4.742;2022-10-31T15:24:48;16.33;;;9.57;;
10045;SDS011;5063;50.878;4.742;2022-10-31T15:27:21;14.67;;;9.63;;
10045;SDS011;5063;50.878;4.742;2022-10-31T15:29:49;16.27;;;10.60;;
10045;SDS011;5063;50.878;4.742;2022-10-31T15:32:25;16.17;;;10.70;;
10045;SDS011;5063;50.878;4.742;2022-10-31T15:34:53;16.70;;;10.23;;
10045;SDS011;5063;50.878;4.742;2022-10-31T15:37:21;14.13;;;10.57;;
10045;SDS011;5063;50.878;4.742;2022-10-31T15:39:54;20.13;;;10.43;;
10045;SDS011;5063;50.878;4.742;2022-10-31T15:45:02;13.97;;;9.80;;
10045;SDS011;5063;50.878;4.742;2022-10-31T15:53:00;18.87;;;9.80;;
10045;SDS011;5063;50.878;4.742;2022-10-31T15:55:29;17.27;;;9.53;;
10045;SDS011;5063;50.878;4.742;2022-10-31T15:57:58;16.60;;;8.57;;
10045;SDS011;5063;50.878;4.742;2022-10-31T16:00:35;21.50;;;9.90;;
10045;SDS011;5063;50.878;4.742;2022-10-31T16:05:48;18.07;;;8.77;;
10045;SDS011;5063;50.878;4.742;2022-10-31T16:08:34;14.83;;;8.27;;
10045;SDS011;5063;50.878;4.742;2022-10-31T16:13:34;13.97;;;7.70;;
10045;SDS011;5063;50.878;4.742;2022-10-31T16:16:03;16.47;;;8.90;;
10045;SDS011;5063;50.878;4.742;2022-10-31T16:18:37;12.90;;;7.97;;
10045;SDS011;5063;50.878;4.742;2022-10-31T16:21:05;12.70;;;7.67;;
10045;SDS011;5063;50.878;4.742;2022-10-31T16:23:32;10.83;;;7.10;;
10045;SDS011;5063;50.878;4.742;2022-10-31T16:25:58;14.20;;;7.77;;
10045;SDS011;5063;50.878;4.742;2022-10-31T16:28:24;12.43;;;6.03;;
10045;SDS011;5063;50.878;4.742;2022-10-31T16:30:53;10.07;;;7.00;;
10045;SDS011;5063;50.878;4.742;2022-10-31T16:33:21;8.87;;;6.27;;
10045;SDS011;5063;50.878;4.742;2022-10-31T16:35:56;14.17;;;6.73;;
10045;SDS011;5063;50.878;4.742;2022-10-31T16:38:23;12.30;;;6.37;;
10045;SDS011;5063;50.878;4.742;2022-10-31T16:40:49;7.93;;;5.63;;
10045;SDS011;5063;50.878;4.742;2022-10-31T16:43:16;10.47;;;6.30;;
10045;SDS011;5063;50.878;4.742;2022-10-31T16:45:44;13.13;;;6.20;;
10045;SDS011;5063;50.878;4.742;2022-10-31T16:48:19;10.27;;;6.00;;
10045;SDS011;5063;50.878;4.742;2022-10-31T16:50:47;12.13;;;6.60;;
10045;SDS011;5063;50.878;4.742;2022-10-31T16:53:14;9.30;;;5.60;;
10045;SDS011;5063;50.878;4.742;2022-10-31T16:55:42;13.17;;;6.03;;
10045;SDS011;5063;50.878;4.742;2022-10-31T16:58:10;12.37;;;6.00;;
10045;SDS011;5063;50.878;4.742;2022-10-31T17:00:40;13.33;;;6.03;;
10045;SDS011;5063;50.878;4.742;2022-10-31T17:03:07;10.07;;;5.83;;
10045;SDS011;5063;50.878;4.742;2022-10-31T17:05:33;9.77;;;5.50;;
10045;SDS011;5063;50.878;4.742;2022-10-31T17:07:59;9.20;;;5.37;;
10045;SDS011;5063;50.878;4.742;2022-10-31T17:10:25;13.27;;;5.73;;
10045;SDS011;5063;50.878;4.742;2022-10-31T17:12:51;13.17;;;6.07;;
10045;SDS011;5063;50.878;4.742;2022-10-31T17:15:19;13.83;;;6.10;;
10045;SDS011;5063;50.878;4.742;2022-10-31T17:17:48;8.90;;;5.53;;
10045;SDS011;5063;50.878;4.742;2022-10-31T17:20:24;12.27;;;5.00;;
10045;SDS011;5063;50.878;4.742;2022-10-31T17:22:52;7.33;;;4.90;;
10045;SDS011;5063;50.878;4.742;2022-10-31T17:25:19;13.57;;;5.17;;
10045;SDS011;5063;50.878;4.742;2022-10-31T17:27:47;11.80;;;5.17;;
10045;SDS011;5063;50.878;4.742;2022-10-31T17:30:13;9.47;;;4.80;;
10045;SDS011;5063;50.878;4.742;2022-10-31T17:32:40;11.33;;;5.37;;
10045;SDS011;5063;50.878;4.742;2022-10-31T17:35:07;10.30;;;4.97;;
10045;SDS011;5063;50.878;4.742;2022-10-31T17:37:33;12.13;;;5.17;;
10045;SDS011;5063;50.878;4.742;2022-10-31T17:40:00;9.10;;;5.40;;
10045;SDS011;5063;50.878;4.742;2022-10-31T17:42:26;8.53;;;5.67;;
10045;SDS011;5063;50.878;4.742;2022-10-31T17:44:51;8.67;;;5.30;;
10045;SDS011;5063;50.878;4.742;2022-10-31T17:47:17;10.30;;;5.20;;
10045;SDS011;5063;50.878;4.742;2022-10-31T17:49:43;15.67;;;5.70;;
10045;SDS011;5063;50.878;4.742;2022-10-31T17:52:08;10.53;;;5.23;;
10045;SDS011;5063;50.878;4.742;2022-10-31T17:54:34;8.90;;;5.30;;
10045;SDS011;5063;50.878;4.742;2022-10-31T17:57:00;5.93;;;4.90;;